Constance, Kentucky
Current Conditions -  °F | °C
As of 2:35 PM on Saturday 25 Oct 2014 (Local Time) from KI69 Reporting Station
Clear Clear  
Wind Chill: 70°   Ceiling: Unl
Heat Index: 70°   Visibility: 10mi
Dew Point: 55°   Wind: 13mph
Humidity: 60%   Direction: 240°WSW
Pressure: 29.92"   Gusts: 17mph
Location:  39.0738°N, 84.6374°W
Report Text: KI69 251835Z AUTO 24011G15KT 10SM CLR 21/13 A2992 RMK AO1
Loading
Personal Weather Stations






























Interactive Weather Map
Tropical Storm Tracking
New forecast layout! Learn more

10-Day Weather Forecast

Advertisements
Track Severe Weather on mobile